Flight Track Log - Related Links

Times and Time Zones

All times are in EDT time to prevent confusion due to time zone crossing. See the TCF3559 flight status page for this flight to view local times or setup timezone preferences in your user account.

Time Position Orientation Groundspeed Altitude Reporting Facility
EDT Latitude Longitude Course Direction KTS MPH feet Rate Location/Type
Wed 11:17:38 AM 41.3917 -81.9033 259° West 159 183 2,000  Level Cleveland Center
Wed 11:18:14 AM 41.3806 -81.9531 253° West 210 242 2,900 2,330 Climbing Cleveland Center
Wed 11:19:21 AM 41.3542 -82.0603 252° West 315 362 6,000 3,071 Climbing Cleveland Center
Wed 11:20:00 AM 41.2369 -82.3770 248° West  Level FlightAware Approximate
Wed 11:20:21 AM 41.3217 -82.1619 247° West 315 362 9,400  Level Cleveland Center
Wed 11:21:00 AM 41.1956 -82.5089 236° Southwest  Level FlightAware Approximate
Wed 11:21:21 AM 41.2867 -82.2661 246° West 304 350 11,500  Level Cleveland Center
Wed 11:22:00 AM 41.1428 -82.6334 240° Southwest  Level FlightAware Approximate
Wed 11:22:21 AM 41.2497 -82.3783 246° West 324 373 13,900  Level Cleveland Center
Wed 11:23:00 AM 41.0961 -82.7607 259° West  Level FlightAware Approximate
Wed 11:23:21 AM 41.2103 -82.4958 246° West 343 395 16,500  Level Cleveland Center
Wed 11:24:21 AM 41.1603 -82.6103 240° Southwest 358 412 18,200 1,850 Climbing Cleveland Center
Wed 11:25:21 AM 41.1125 -82.7164 239° Southwest 370 426 20,200 2,050 Climbing Cleveland Center
Wed 11:26:21 AM 41.0869 -82.8533 256° West 376 433 22,300 2,000 Climbing Cleveland Center
Wed 11:27:21 AM 41.0672 -82.9931 259° West 382 440 24,200 1,600 Climbing Cleveland Center
Wed 11:28:21 AM 41.0475 -83.1328 259° West 393 452 25,500 1,350 Climbing Cleveland Center
Wed 11:29:21 AM 41.0250 -83.2969 260° West 400 460 26,900 1,350 Climbing Cleveland Center
Wed 11:30:21 AM 41.0025 -83.4475 259° West 416 479 28,200 1,250 Climbing Cleveland Center
Wed 11:31:21 AM 40.9800 -83.6006 259° West 429 494 29,400 1,050 Climbing Cleveland Center
Wed 11:32:21 AM 40.9467 -83.7528 254° West 429 494 30,300 870 Climbing Cleveland Center
Wed 11:33:32 AM 40.8403 -83.8597 217° Southwest 428 493 31,300 902 Climbing Indianapolis Center
Wed 11:34:34 AM 40.7428 -83.9508 215° Southwest 427 491 32,300 968 Climbing Indianapolis Center
Wed 11:35:36 AM 40.6450 -84.0397 215° Southwest 425 489 33,300 780 Climbing Indianapolis Center
Wed 11:36:37 AM 40.5472 -84.1294 215° Southwest 426 490 33,900 1,024 Climbing Indianapolis Center
Wed 11:37:39 AM 40.4508 -84.2172 215° Southwest 421 484 35,400 1,016 Climbing Indianapolis Center
Wed 11:38:41 AM 40.3422 -84.3156 215° Southwest 410 472 36,000 290 Climbing Indianapolis Center
Wed 11:39:43 AM 40.2456 -84.4022 214° Southwest 412 474 36,000  Level Indianapolis Center
Wed 11:40:45 AM 40.1461 -84.4922 215° Southwest 420 483 36,000  Level Indianapolis Center
Wed 11:41:46 AM 40.0461 -84.5811 214° Southwest 428 493 36,000  Level Indianapolis Center
Wed 11:42:48 AM 39.9475 -84.6678 214° Southwest 426 490 36,000  Level Indianapolis Center
Wed 11:43:50 AM 39.8492 -84.7542 214° Southwest 424 488 36,000  Level Indianapolis Center
Wed 11:44:52 AM 39.7553 -84.8414 216° Southwest 415 478 36,000  Level Indianapolis Center
Wed 11:45:53 AM 39.6742 -84.9544 227° Southwest 420 483 36,000  Level Indianapolis Center
Wed 11:46:55 AM 39.5969 -85.0672 228° Southwest 415 478 36,000  Level Indianapolis Center
Wed 11:47:57 AM 39.5072 -85.1956 228° Southwest 410 472 36,000  Level Indianapolis Center
Wed 11:48:59 AM 39.4294 -85.3061 228° Southwest 411 473 36,000  Level Indianapolis Center
Wed 11:50:01 AM 39.3517 -85.4169 228° Southwest 412 474 36,000  Level Indianapolis Center
Wed 11:51:02 AM 39.2742 -85.5264 228° Southwest 410 472 36,000  Level Indianapolis Center
Wed 11:52:04 AM 39.1958 -85.6367 228° Southwest 412 474 36,000  Level Indianapolis Center
Wed 11:53:06 AM 39.1033 -85.7231 216° Southwest 411 473 36,000  Level Indianapolis Center
Wed 11:54:08 AM 38.9906 -85.7600 194° South 415 478 36,000  Level Indianapolis Center
Wed 11:55:09 AM 38.8728 -85.7603 180° South 421 484 36,000  Level Indianapolis Center
Wed 11:56:11 AM 38.7561 -85.7603 180° South 416 479 36,000  Level Indianapolis Center
Wed 11:57:13 AM 38.6256 -85.7961 192° South 416 479 36,000  Level Indianapolis Center
Wed 11:58:15 AM 38.5614 -85.8969 231° Southwest 412 474 36,000  Level Indianapolis Center
Wed 11:59:17 AM 38.4989 -86.0189 237° Southwest 409 471 36,000  Level Indianapolis Center
Wed 12:00:18 PM 38.4375 -86.1403 237° Southwest 407 468 36,000  Level Indianapolis Center
Wed 12:01:20 PM 38.3631 -86.2847 237° Southwest 405 466 36,000  Level Indianapolis Center
Wed 12:02:22 PM 38.3014 -86.4053 237° Southwest 404 465 36,000  Level Indianapolis Center
Wed 12:03:24 PM 38.2394 -86.5239 236° Southwest 400 460 36,000  Level Indianapolis Center
Wed 12:04:26 PM 38.1775 -86.6419 236° Southwest 398 458 36,000  Level Indianapolis Center
Wed 12:05:27 PM 38.1156 -86.7619 237° Southwest 401 461 36,000  Level Indianapolis Center
Wed 12:06:29 PM 38.0544 -86.8778 236° Southwest 391 450 36,000  Level Indianapolis Center
Wed 12:07:31 PM 37.9936 -86.9947 237° Southwest 391 450 36,000  Level Indianapolis Center
Wed 12:08:33 PM 37.9325 -87.1114 236° Southwest 393 452 36,000  Level Indianapolis Center
Wed 12:09:35 PM 37.8706 -87.2269 236° Southwest 393 452 36,000  Level Indianapolis Center
Wed 12:10:36 PM 37.8097 -87.3419 236° Southwest 392 451 36,000  Level Indianapolis Center
Wed 12:11:38 PM 37.7450 -87.4667 237° Southwest 390 449 36,000  Level Indianapolis Center
Wed 12:12:40 PM 37.6842 -87.5786 236° Southwest 386 444 36,000  Level Indianapolis Center
Wed 12:13:42 PM 37.6228 -87.6922 236° Southwest 388 447 36,000  Level Indianapolis Center
Wed 12:14:09 PM 37.5922 -87.7686 243° Southwest 397 457 36,000  Level Memphis Center
Wed 12:15:09 PM 37.5281 -87.8806 234° Southwest 402 463 36,000  Level Memphis Center
Wed 12:16:09 PM 37.4656 -87.9897 234° Southwest 397 457 36,000 300 Level Memphis Center
Wed 12:17:09 PM 37.3817 -88.0731 218° Southwest 392 451 36,600 600 Climbing Memphis Center
Wed 12:18:09 PM 37.2978 -88.1564 218° Southwest 392 451 37,200 600 Climbing Memphis Center
Wed 12:19:09 PM 37.2222 -88.2444 223° Southwest 392 451 37,800 400 Climbing Memphis Center
Wed 12:20:09 PM 37.1425 -88.3375 223° Southwest 387 445 38,000 100 Climbing Memphis Center
Wed 12:21:09 PM 37.0628 -88.4281 222° Southwest 387 445 38,000  Level Memphis Center
Wed 12:22:09 PM 36.9828 -88.5208 223° Southwest 387 445 38,000  Level Memphis Center
Wed 12:23:09 PM 36.9008 -88.6161 223° Southwest 392 451 38,000  Level Memphis Center
Wed 12:24:09 PM 36.8208 -88.7086 223° Southwest 397 457 38,000  Level Memphis Center
Wed 12:25:09 PM 36.7553 -88.7850 223° Southwest 397 457 38,000  Level Memphis Center
Wed 12:26:09 PM 36.6647 -88.8850 222° Southwest 397 457 38,000  Level Memphis Center
Wed 12:27:09 PM 36.5844 -88.9794 223° Southwest 397 457 38,000  Level Memphis Center
Wed 12:28:09 PM 36.5000 -89.0767 223° Southwest 397 457 38,000  Level Memphis Center
Wed 12:29:09 PM 36.4175 -89.1681 222° Southwest 397 457 38,000  Level Memphis Center
Wed 12:30:09 PM 36.3269 -89.2750 224° Southwest 408 470 38,000  Level Memphis Center
Wed 12:31:09 PM 36.2442 -89.3586 219° Southwest 416 479 38,000  Level Memphis Center
Wed 12:32:09 PM 36.1678 -89.4519 225° Southwest 408 470 38,000  Level Memphis Center
Wed 12:33:09 PM 36.0789 -89.5506 222° Southwest 403 464 38,000  Level Memphis Center
Wed 12:34:09 PM 36.0000 -89.6411 223° Southwest 403 464 38,000  Level Memphis Center
Wed 12:35:09 PM 35.9192 -89.7317 222° Southwest 397 457 38,000  Level Memphis Center
Wed 12:36:09 PM 35.8364 -89.8244 222° Southwest 397 457 38,000  Level Memphis Center
Wed 12:37:09 PM 35.7575 -89.9119 222° Southwest 397 457 38,000  Level Memphis Center
Wed 12:38:09 PM 35.6828 -90.0017 224° Southwest 391 450 38,000  Level Memphis Center
Wed 12:39:09 PM 35.5994 -90.0939 222° Southwest 386 444 38,000  Level Memphis Center
Wed 12:40:09 PM 35.5267 -90.1733 222° Southwest 392 451 38,000  Level Memphis Center
Wed 12:41:09 PM 35.4453 -90.2653 223° Southwest 392 451 38,000  Level Memphis Center
Wed 12:42:09 PM 35.3642 -90.3544 222° Southwest 398 458 38,000  Level Memphis Center
Wed 12:43:09 PM 35.2806 -90.4461 222° Southwest 398 458 38,000  Level Memphis Center
Wed 12:44:10 PM 35.2011 -90.5375 223° Southwest 398 458 38,000  Level Memphis Center
Wed 12:45:10 PM 35.1197 -90.6236 221° Southwest 398 458 38,000  Level Memphis Center
Wed 12:46:09 PM 35.0361 -90.7147 222° Southwest 398 458 38,000  Level Memphis Center
Wed 12:47:09 PM 34.9544 -90.8056 222° Southwest 398 458 38,000  Level Memphis Center
Wed 12:48:09 PM 34.8706 -90.8936 221° Southwest 397 457 38,000  Level Memphis Center
Wed 12:49:09 PM 34.7867 -90.9817 221° Southwest 402 463 38,000  Level Memphis Center
Wed 12:50:09 PM 34.6944 -91.0794 221° Southwest 402 463 38,000  Level Memphis Center
Wed 12:51:09 PM 34.6106 -91.1697 222° Southwest 402 463 38,000  Level Memphis Center
Wed 12:52:09 PM 34.5306 -91.2622 224° Southwest 402 463 38,000  Level Memphis Center
Wed 12:53:09 PM 34.4442 -91.3494 220° Southwest 402 463 38,000  Level Memphis Center
Wed 12:54:09 PM 34.3581 -91.4389 221° Southwest 407 468 38,000  Level Memphis Center
Wed 12:55:09 PM 34.2736 -91.5283 221° Southwest 407 468 38,000  Level Memphis Center
Wed 12:56:09 PM 34.1914 -91.6203 223° Southwest 412 474 38,000  Level Memphis Center
Wed 12:57:09 PM 34.1050 -91.7042 219° Southwest 414 476 38,000  Level Memphis Center
Wed 12:58:09 PM 34.0353 -91.7883 225° Southwest 407 468 38,000  Level Memphis Center
Wed 12:59:09 PM 33.9486 -91.8772 220° Southwest 407 468 38,000  Level Memphis Center
Wed 01:00:09 PM 33.8639 -91.9658 221° Southwest 407 468 38,000  Level Memphis Center
Wed 01:02:30 PM 33.6589 -92.1658 219° Southwest 401 461 38,000  Level Fort Worth Center
Wed 01:03:30 PM 33.5519 -92.2044 197° South 401 461 38,000  Level Fort Worth Center
Wed 01:04:30 PM 33.4406 -92.2358 193° South 401 461 38,000  Level Fort Worth Center
Wed 01:05:30 PM 33.3333 -92.2694 195° South 406 467 38,000  Level Fort Worth Center
Wed 01:06:30 PM 33.2181 -92.3036 194° South 412 474 38,000  Level Fort Worth Center
Wed 01:07:30 PM 33.1086 -92.3372 194° South 412 474 38,000  Level Fort Worth Center
Wed 01:08:30 PM 32.9975 -92.3708 194° South 412 474 38,000  Level Fort Worth Center
Wed 01:09:30 PM 32.8783 -92.4194 199° South 412 474 38,000  Level Fort Worth Center
Wed 01:10:30 PM 32.7789 -92.4892 211° Southwest 412 474 38,000  Level Fort Worth Center
Wed 01:11:30 PM 32.6792 -92.5564 210° Southwest 417 480 38,000  Level Fort Worth Center
Wed 01:13:35 PM 32.4792 -92.6808 208° Southwest 420 483 38,000  Level Houston Center
Wed 01:14:36 PM 32.3561 -92.7586 208° Southwest 420 483 38,000  Level Houston Center
Wed 01:15:38 PM 32.2528 -92.8211 207° Southwest 420 483 38,000  Level Houston Center
Wed 01:16:40 PM 32.1536 -92.8931 212° Southwest 420 483 38,000  Level Houston Center
Wed 01:17:42 PM 32.0444 -92.9764 213° Southwest 418 481 38,000  Level Houston Center
Wed 01:18:44 PM 31.9594 -93.0439 214° Southwest 418 481 38,000  Level Houston Center
Wed 01:19:46 PM 31.8633 -93.1158 212° Southwest 414 476 38,000  Level Houston Center
Wed 01:20:47 PM 31.7483 -93.2031 213° Southwest 415 478 38,000  Level Houston Center
Wed 01:21:49 PM 31.6528 -93.2756 213° Southwest 412 474 38,000  Level Houston Center
Wed 01:22:51 PM 31.5575 -93.3503 214° Southwest 411 473 38,000  Level Houston Center
Wed 01:23:53 PM 31.4597 -93.4231 212° Southwest 414 476 38,000 -677 Level Houston Center
Wed 01:24:55 PM 31.3619 -93.4978 213° Southwest 420 483 36,600 -1,935 Descending Houston Center
Wed 01:25:57 PM 31.2444 -93.5850 212° Southwest 418 481 34,000 -2,371 Descending Houston Center
Wed 01:26:59 PM 31.1472 -93.6575 213° Southwest 416 479 31,700 -2,226 Descending Houston Center
Wed 01:28:01 PM 31.0461 -93.7331 213° Southwest 425 489 29,400 -2,177 Descending Houston Center
Wed 01:29:03 PM 30.9486 -93.8086 214° Southwest 427 491 27,200 -2,129 Descending Houston Center
Wed 01:30:05 PM 30.8542 -93.8789 213° Southwest 418 481 25,000 -1,984 Descending Houston Center
Wed 01:31:07 PM 30.7619 -93.9475 213° Southwest 408 470 23,100 -2,000 Descending Houston Center
Wed 01:32:08 PM 30.6508 -94.0303 213° Southwest 399 459 20,900 -2,000 Descending Houston Center
Wed 01:33:10 PM 30.5636 -94.1014 215° Southwest 390 449 19,000 -2,177 Descending Houston Center
Wed 01:34:12 PM 30.5058 -94.2014 236° Southwest 376 433 16,400 -2,805 Descending Houston Center
Wed 01:34:27 PM 30.4878 -94.2317 235° Southwest 373 429 15,400 -2,885 Descending Houston Center
Wed 01:35:04 PM 30.4519 -94.2947 237° Southwest 371 427 13,900 -1,962 Descending Houston Center
Wed 01:36:11 PM 30.3931 -94.3994 237° Southwest 337 388 12,000 -851 Descending Houston Center
Wed 01:37:18 PM 30.3467 -94.4825 237° Southwest 337 388 12,000 -600 Level Houston Center
Wed 01:38:01 PM 30.2978 -94.5644 235° Southwest 337 388 10,900 -1,355 Descending Houston Center
Wed 01:38:20 PM 30.2897 -94.5808 240° Southwest 336 387 10,600 -740 Descending Houston Center
Wed 01:39:14 PM 30.2369 -94.6739 237° Southwest 331 381 10,000 -330 Descending Houston Center
Wed 01:40:09 PM 30.1900 -94.7550 236° Southwest 328 377 10,000  Level Houston Center
Wed 01:40:24 PM 30.1911 -94.7589 288° West 329 379 10,000 -1,082 Level Houston Center
Wed 01:41:10 PM 30.1736 -94.8467 257° West 284 327 8,900 -1,452 Descending Houston Center
Wed 01:41:26 PM 30.1717 -94.8686 264° West 293 337 8,500 -1,672 Descending Houston Center
Wed 01:42:11 PM 30.1614 -94.9375 260° West 286 329 7,200 -1,645 Descending Houston Center
Wed 01:42:28 PM 30.1586 -94.9583 261° West 286 329 6,800 -1,180 Descending Houston Center
Wed 01:43:12 PM 30.1464 -95.0239 258° West 273 314 6,000 -774 Descending Houston Center
Wed 01:43:30 PM 30.1447 -95.0436 264° West 277 319 6,000  Level Houston Center
Wed 01:44:13 PM 30.1319 -95.1175 259° West 274 315 6,000  Level Houston Center
Wed 01:44:32 PM 30.1317 -95.1294 268° West 273 314 6,000  Level Houston Center
Wed 01:45:21 PM 30.1172 -95.2089 258° West 269 310 6,000  Level Houston Center
Wed 01:46:21 PM 30.1067 -95.2994 262° West 275 316 6,000  Level Houston Center
Wed 01:46:36 PM 30.1067 -95.3167 270° West 271 312 6,000 -774 Level Houston Center
Wed 01:47:23 PM 30.1064 -95.3864 270° West 268 308 5,200 -1,355 Descending Houston Center
Wed 01:47:38 PM 30.1069 -95.4025 272° West 270 311 4,600 -1,970 Descending Houston Center
Wed 01:48:30 PM 30.1067 -95.4831 270° West 266 306 3,000 -897 Descending Houston Center
Wed 01:49:25 PM 30.0878 -95.5528 253° West 234 269 3,000  Level Houston Center
Wed 01:49:42 PM 30.0831 -95.5600 233° Southwest 253 291 3,000  Level Houston Center
Wed 01:50:27 PM 30.0425 -95.5847 208° Southwest 219 252 3,000  Level Houston Center
Wed 01:50:44 PM 30.0339 -95.5817 163° South 232 267 3,000  Level Houston Center
Wed 01:51:22 PM 30.0064 -95.5578 143° Southeast 169 194 3,000  Level Houston Center
Wed 01:51:46 PM 30.0000 -95.5456 121° Southeast 196 226 3,000 -493 Level Houston Center
Wed 01:52:35 PM 29.9917 -95.4894 100° East 179 206 2,400 -818 Descending Houston Center
Wed 01:53:36 PM 29.9936 -95.4386 87° East 146 168 1,500 -885 Descending Houston Center

Login

Don't have an account? Register now (free) for customized features, flight alerts, and more!